sensor_id;sensor_type;location;lat;lon;timestamp;P1;P2;P0
59546;PMS5003;45368;55.002;-1.592;2022-10-15T00:00:38;9;7;
59546;PMS5003;45368;55.002;-1.592;2022-10-15T00:03:06;8;7;
59546;PMS5003;45368;55.002;-1.592;2022-10-15T00:05:35;6;6;
59546;PMS5003;45368;55.002;-1.592;2022-10-15T00:08:03;9;8;
59546;PMS5003;45368;55.002;-1.592;2022-10-15T00:10:30;6;6;
59546;PMS5003;45368;55.002;-1.592;2022-10-15T00:12:58;7;6;
59546;PMS5003;45368;55.002;-1.592;2022-10-15T00:15:26;12;9;
59546;PMS5003;45368;55.002;-1.592;2022-10-15T00:17:54;10;10;
59546;PMS5003;45368;55.002;-1.592;2022-10-15T00:20:21;7;7;
59546;PMS5003;45368;55.002;-1.592;2022-10-15T00:22:48;10;9;
59546;PMS5003;45368;55.002;-1.592;2022-10-15T00:25:15;6;5;
59546;PMS5003;45368;55.002;-1.592;2022-10-15T00:27:42;8;7;
59546;PMS5003;45368;55.002;-1.592;2022-10-15T00:30:09;8;6;
59546;PMS5003;45368;55.002;-1.592;2022-10-15T00:32:38;5;5;
59546;PMS5003;45368;55.002;-1.592;2022-10-15T00:35:05;7;5;
59546;PMS5003;45368;55.002;-1.592;2022-10-15T00:37:32;6;5;
59546;PMS5003;45368;55.002;-1.592;2022-10-15T00:39:59;6;6;
59546;PMS5003;45368;55.002;-1.592;2022-10-15T00:42:26;11;10;
59546;PMS5003;45368;55.002;-1.592;2022-10-15T00:44:54;8;8;
59546;PMS5003;45368;55.002;-1.592;2022-10-15T00:47:24;15;13;
59546;PMS5003;45368;55.002;-1.592;2022-10-15T00:49:56;19;14;
59546;PMS5003;45368;55.002;-1.592;2022-10-15T00:52:30;12;11;
59546;PMS5003;45368;55.002;-1.592;2022-10-15T00:55:05;17;12;
59546;PMS5003;45368;55.002;-1.592;2022-10-15T00:57:36;11;10;
59546;PMS5003;45368;55.002;-1.592;2022-10-15T01:00:07;10;8;
59546;PMS5003;45368;55.002;-1.592;2022-10-15T01:02:36;9;7;
59546;PMS5003;45368;55.002;-1.592;2022-10-15T01:05:04;8;7;
59546;PMS5003;45368;55.002;-1.592;2022-10-15T01:07:34;7;6;
59546;PMS5003;45368;55.002;-1.592;2022-10-15T01:10:01;8;7;
59546;PMS5003;45368;55.002;-1.592;2022-10-15T01:12:35;4;4;
59546;PMS5003;45368;55.002;-1.592;2022-10-15T01:15:13;4;4;
59546;PMS5003;45368;55.002;-1.592;2022-10-15T01:17:46;6;5;
59546;PMS5003;45368;55.002;-1.592;2022-10-15T01:20:22;6;5;
59546;PMS5003;45368;55.002;-1.592;2022-10-15T01:24:41;6;5;
59546;PMS5003;45368;55.002;-1.592;2022-10-15T01:27:22;6;5;
59546;PMS5003;45368;55.002;-1.592;2022-10-15T01:30:14;7;5;
59546;PMS5003;45368;55.002;-1.592;2022-10-15T01:32:45;9;7;
59546;PMS5003;45368;55.002;-1.592;2022-10-15T01:35:21;7;6;
59546;PMS5003;45368;55.002;-1.592;2022-10-15T01:37:58;9;7;
59546;PMS5003;45368;55.002;-1.592;2022-10-15T01:40:35;7;6;
59546;PMS5003;45368;55.002;-1.592;2022-10-15T01:43:10;10;9;
59546;PMS5003;45368;55.002;-1.592;2022-10-15T01:45:42;9;8;
59546;PMS5003;45368;55.002;-1.592;2022-10-15T01:48:13;7;6;
59546;PMS5003;45368;55.002;-1.592;2022-10-15T01:50:44;7;6;
59546;PMS5003;45368;55.002;-1.592;2022-10-15T01:53:14;6;6;
59546;PMS5003;45368;55.002;-1.592;2022-10-15T01:55:44;5;5;
59546;PMS5003;45368;55.002;-1.592;2022-10-15T01:58:14;8;6;
59546;PMS5003;45368;55.002;-1.592;2022-10-15T02:00:43;9;6;
59546;PMS5003;45368;55.002;-1.592;2022-10-15T02:03:11;9;7;
59546;PMS5003;45368;55.002;-1.592;2022-10-15T02:05:38;11;9;
59546;PMS5003;45368;55.002;-1.592;2022-10-15T02:08:14;5;5;
59546;PMS5003;45368;55.002;-1.592;2022-10-15T02:10:47;8;8;
59546;PMS5003;45368;55.002;-1.592;2022-10-15T02:13:22;12;10;
59546;PMS5003;45368;55.002;-1.592;2022-10-15T02:15:57;9;8;
59546;PMS5003;45368;55.002;-1.592;2022-10-15T02:18:34;9;7;
59546;PMS5003;45368;55.002;-1.592;2022-10-15T02:21:07;8;7;
59546;PMS5003;45368;55.002;-1.592;2022-10-15T02:23:40;6;4;
59546;PMS5003;45368;55.002;-1.592;2022-10-15T02:26:14;5;5;
59546;PMS5003;45368;55.002;-1.592;2022-10-15T02:28:44;7;5;
59546;PMS5003;45368;55.002;-1.592;2022-10-15T02:31:16;7;7;
59546;PMS5003;45368;55.002;-1.592;2022-10-15T02:33:46;6;6;
59546;PMS5003;45368;55.002;-1.592;2022-10-15T02:36:16;6;6;
59546;PMS5003;45368;55.002;-1.592;2022-10-15T02:38:45;7;6;
59546;PMS5003;45368;55.002;-1.592;2022-10-15T02:41:14;5;5;
59546;PMS5003;45368;55.002;-1.592;2022-10-15T02:43:42;6;5;
59546;PMS5003;45368;55.002;-1.592;2022-10-15T02:46:09;5;5;
59546;PMS5003;45368;55.002;-1.592;2022-10-15T02:48:38;5;5;
59546;PMS5003;45368;55.002;-1.592;2022-10-15T02:51:05;7;6;
59546;PMS5003;45368;55.002;-1.592;2022-10-15T02:53:33;5;5;
59546;PMS5003;45368;55.002;-1.592;2022-10-15T02:56:00;4;4;
59546;PMS5003;45368;55.002;-1.592;2022-10-15T02:58:27;7;6;
59546;PMS5003;45368;55.002;-1.592;2022-10-15T03:00:54;8;6;
59546;PMS5003;45368;55.002;-1.592;2022-10-15T03:03:20;6;6;
59546;PMS5003;45368;55.002;-1.592;2022-10-15T03:05:49;8;8;
59546;PMS5003;45368;55.002;-1.592;2022-10-15T03:08:16;9;8;
59546;PMS5003;45368;55.002;-1.592;2022-10-15T03:10:43;8;6;
59546;PMS5003;45368;55.002;-1.592;2022-10-15T03:13:10;9;7;
59546;PMS5003;45368;55.002;-1.592;2022-10-15T03:15:37;9;6;
59546;PMS5003;45368;55.002;-1.592;2022-10-15T03:18:05;6;6;
59546;PMS5003;45368;55.002;-1.592;2022-10-15T03:20:32;5;4;
59546;PMS5003;45368;55.002;-1.592;2022-10-15T03:22:59;9;8;
59546;PMS5003;45368;55.002;-1.592;2022-10-15T03:25:27;9;8;
59546;PMS5003;45368;55.002;-1.592;2022-10-15T03:27:54;14;12;
59546;PMS5003;45368;55.002;-1.592;2022-10-15T03:30:21;14;12;
59546;PMS5003;45368;55.002;-1.592;2022-10-15T03:32:48;17;15;
59546;PMS5003;45368;55.002;-1.592;2022-10-15T03:35:15;20;14;
59546;PMS5003;45368;55.002;-1.592;2022-10-15T03:37:43;21;20;
59546;PMS5003;45368;55.002;-1.592;2022-10-15T03:40:10;29;23;
59546;PMS5003;45368;55.002;-1.592;2022-10-15T03:42:38;25;23;
59546;PMS5003;45368;55.002;-1.592;2022-10-15T03:45:05;27;25;
59546;PMS5003;45368;55.002;-1.592;2022-10-15T03:47:33;25;23;
59546;PMS5003;45368;55.002;-1.592;2022-10-15T03:50:00;27;26;
59546;PMS5003;45368;55.002;-1.592;2022-10-15T03:52:28;23;22;
59546;PMS5003;45368;55.002;-1.592;2022-10-15T03:54:54;30;26;
59546;PMS5003;45368;55.002;-1.592;2022-10-15T03:57:22;31;25;
59546;PMS5003;45368;55.002;-1.592;2022-10-15T03:59:49;31;29;
59546;PMS5003;45368;55.002;-1.592;2022-10-15T04:02:16;29;27;
59546;PMS5003;45368;55.002;-1.592;2022-10-15T04:04:44;33;30;
59546;PMS5003;45368;55.002;-1.592;2022-10-15T04:07:11;34;28;
59546;PMS5003;45368;55.002;-1.592;2022-10-15T04:09:39;28;24;
59546;PMS5003;45368;55.002;-1.592;2022-10-15T04:12:06;31;29;
59546;PMS5003;45368;55.002;-1.592;2022-10-15T04:14:33;23;22;
59546;PMS5003;45368;55.002;-1.592;2022-10-15T04:17:00;33;31;
59546;PMS5003;45368;55.002;-1.592;2022-10-15T04:19:28;26;24;
59546;PMS5003;45368;55.002;-1.592;2022-10-15T04:21:55;22;19;
59546;PMS5003;45368;55.002;-1.592;2022-10-15T04:24:22;24;22;
59546;PMS5003;45368;55.002;-1.592;2022-10-15T04:26:50;30;28;
59546;PMS5003;45368;55.002;-1.592;2022-10-15T04:29:17;26;23;
59546;PMS5003;45368;55.002;-1.592;2022-10-15T04:31:45;27;24;
59546;PMS5003;45368;55.002;-1.592;2022-10-15T04:34:11;30;29;
59546;PMS5003;45368;55.002;-1.592;2022-10-15T04:36:39;32;27;
59546;PMS5003;45368;55.002;-1.592;2022-10-15T04:39:06;31;29;
59546;PMS5003;45368;55.002;-1.592;2022-10-15T04:41:34;29;27;
59546;PMS5003;45368;55.002;-1.592;2022-10-15T04:44:01;39;34;
59546;PMS5003;45368;55.002;-1.592;2022-10-15T04:46:28;41;37;
59546;PMS5003;45368;55.002;-1.592;2022-10-15T04:48:56;43;36;
59546;PMS5003;45368;55.002;-1.592;2022-10-15T04:51:23;42;37;
59546;PMS5003;45368;55.002;-1.592;2022-10-15T04:53:52;42;36;
59546;PMS5003;45368;55.002;-1.592;2022-10-15T04:56:20;43;39;
59546;PMS5003;45368;55.002;-1.592;2022-10-15T04:58:49;40;34;
59546;PMS5003;45368;55.002;-1.592;2022-10-15T05:01:17;48;40;
59546;PMS5003;45368;55.002;-1.592;2022-10-15T05:03:46;43;37;
59546;PMS5003;45368;55.002;-1.592;2022-10-15T05:06:14;40;35;
59546;PMS5003;45368;55.002;-1.592;2022-10-15T05:08:44;44;38;
59546;PMS5003;45368;55.002;-1.592;2022-10-15T05:11:12;48;46;
59546;PMS5003;45368;55.002;-1.592;2022-10-15T05:13:41;35;33;
59546;PMS5003;45368;55.002;-1.592;2022-10-15T05:16:10;39;35;
59546;PMS5003;45368;55.002;-1.592;2022-10-15T05:18:39;47;40;
59546;PMS5003;45368;55.002;-1.592;2022-10-15T05:21:08;44;41;
59546;PMS5003;45368;55.002;-1.592;2022-10-15T05:23:35;34;32;
59546;PMS5003;45368;55.002;-1.592;2022-10-15T05:26:03;37;32;
59546;PMS5003;45368;55.002;-1.592;2022-10-15T05:28:34;37;34;
59546;PMS5003;45368;55.002;-1.592;2022-10-15T05:31:04;39;36;
59546;PMS5003;45368;55.002;-1.592;2022-10-15T05:33:31;35;30;
59546;PMS5003;45368;55.002;-1.592;2022-10-15T05:36:06;39;34;
59546;PMS5003;45368;55.002;-1.592;2022-10-15T05:38:34;34;32;
59546;PMS5003;45368;55.002;-1.592;2022-10-15T05:41:02;38;33;
59546;PMS5003;45368;55.002;-1.592;2022-10-15T05:43:29;40;34;
59546;PMS5003;45368;55.002;-1.592;2022-10-15T05:45:57;34;32;
59546;PMS5003;45368;55.002;-1.592;2022-10-15T05:48:25;34;33;
59546;PMS5003;45368;55.002;-1.592;2022-10-15T05:50:52;39;33;
59546;PMS5003;45368;55.002;-1.592;2022-10-15T05:53:20;37;36;
59546;PMS5003;45368;55.002;-1.592;2022-10-15T05:55:47;40;39;
59546;PMS5003;45368;55.002;-1.592;2022-10-15T05:58:14;36;32;
59546;PMS5003;45368;55.002;-1.592;2022-10-15T06:00:41;43;38;
59546;PMS5003;45368;55.002;-1.592;2022-10-15T06:03:10;39;35;
59546;PMS5003;45368;55.002;-1.592;2022-10-15T06:05:38;45;39;
59546;PMS5003;45368;55.002;-1.592;2022-10-15T06:08:05;41;35;
59546;PMS5003;45368;55.002;-1.592;2022-10-15T06:10:34;38;36;
59546;PMS5003;45368;55.002;-1.592;2022-10-15T06:13:02;35;31;
59546;PMS5003;45368;55.002;-1.592;2022-10-15T06:15:30;37;37;
59546;PMS5003;45368;55.002;-1.592;2022-10-15T06:17:58;31;31;
59546;PMS5003;45368;55.002;-1.592;2022-10-15T06:20:26;35;34;
59546;PMS5003;45368;55.002;-1.592;2022-10-15T06:22:56;33;31;
59546;PMS5003;45368;55.002;-1.592;2022-10-15T06:25:23;33;30;
59546;PMS5003;45368;55.002;-1.592;2022-10-15T06:27:51;32;31;
59546;PMS5003;45368;55.002;-1.592;2022-10-15T06:30:18;33;28;
59546;PMS5003;45368;55.002;-1.592;2022-10-15T06:32:47;35;32;
59546;PMS5003;45368;55.002;-1.592;2022-10-15T06:35:15;36;33;
59546;PMS5003;45368;55.002;-1.592;2022-10-15T06:37:43;37;33;
59546;PMS5003;45368;55.002;-1.592;2022-10-15T06:40:10;27;26;
59546;PMS5003;45368;55.002;-1.592;2022-10-15T06:42:39;32;30;
59546;PMS5003;45368;55.002;-1.592;2022-10-15T06:45:07;31;26;
59546;PMS5003;45368;55.002;-1.592;2022-10-15T06:47:35;29;27;
59546;PMS5003;45368;55.002;-1.592;2022-10-15T06:50:03;27;26;
59546;PMS5003;45368;55.002;-1.592;2022-10-15T06:52:32;28;24;
59546;PMS5003;45368;55.002;-1.592;2022-10-15T06:55:00;30;27;
59546;PMS5003;45368;55.002;-1.592;2022-10-15T06:57:27;26;25;
59546;PMS5003;45368;55.002;-1.592;2022-10-15T06:59:55;32;30;
59546;PMS5003;45368;55.002;-1.592;2022-10-15T07:02:22;24;23;
59546;PMS5003;45368;55.002;-1.592;2022-10-15T07:04:50;23;23;
59546;PMS5003;45368;55.002;-1.592;2022-10-15T07:07:17;26;24;
59546;PMS5003;45368;55.002;-1.592;2022-10-15T07:09:44;24;23;
59546;PMS5003;45368;55.002;-1.592;2022-10-15T07:12:11;21;20;
59546;PMS5003;45368;55.002;-1.592;2022-10-15T07:14:39;31;29;
59546;PMS5003;45368;55.002;-1.592;2022-10-15T07:17:07;28;25;
59546;PMS5003;45368;55.002;-1.592;2022-10-15T07:19:34;20;20;
59546;PMS5003;45368;55.002;-1.592;2022-10-15T07:22:01;25;23;
59546;PMS5003;45368;55.002;-1.592;2022-10-15T07:24:29;26;24;
59546;PMS5003;45368;55.002;-1.592;2022-10-15T07:26:56;26;25;
59546;PMS5003;45368;55.002;-1.592;2022-10-15T07:29:24;23;23;
59546;PMS5003;45368;55.002;-1.592;2022-10-15T07:31:51;26;26;
59546;PMS5003;45368;55.002;-1.592;2022-10-15T07:34:18;25;24;
59546;PMS5003;45368;55.002;-1.592;2022-10-15T07:36:45;25;23;
59546;PMS5003;45368;55.002;-1.592;2022-10-15T07:39:12;22;21;
59546;PMS5003;45368;55.002;-1.592;2022-10-15T07:41:39;21;21;
59546;PMS5003;45368;55.002;-1.592;2022-10-15T07:44:06;24;23;
59546;PMS5003;45368;55.002;-1.592;2022-10-15T07:46:34;26;22;
59546;PMS5003;45368;55.002;-1.592;2022-10-15T07:49:00;20;19;
59546;PMS5003;45368;55.002;-1.592;2022-10-15T07:51:28;21;19;
59546;PMS5003;45368;55.002;-1.592;2022-10-15T07:53:55;31;29;
59546;PMS5003;45368;55.002;-1.592;2022-10-15T07:56:22;41;41;
59546;PMS5003;45368;55.002;-1.592;2022-10-15T07:58:49;35;32;
59546;PMS5003;45368;55.002;-1.592;2022-10-15T08:01:17;37;35;
59546;PMS5003;45368;55.002;-1.592;2022-10-15T08:03:45;34;30;
59546;PMS5003;45368;55.002;-1.592;2022-10-15T08:06:13;43;38;
59546;PMS5003;45368;55.002;-1.592;2022-10-15T08:08:41;32;30;
59546;PMS5003;45368;55.002;-1.592;2022-10-15T08:11:09;21;19;
59546;PMS5003;45368;55.002;-1.592;2022-10-15T08:13:37;23;20;
59546;PMS5003;45368;55.002;-1.592;2022-10-15T08:16:06;14;14;
59546;PMS5003;45368;55.002;-1.592;2022-10-15T08:18:33;16;14;
59546;PMS5003;45368;55.002;-1.592;2022-10-15T08:21:00;15;15;
59546;PMS5003;45368;55.002;-1.592;2022-10-15T08:23:28;16;16;
59546;PMS5003;45368;55.002;-1.592;2022-10-15T08:25:56;16;13;
59546;PMS5003;45368;55.002;-1.592;2022-10-15T08:28:23;14;13;
59546;PMS5003;45368;55.002;-1.592;2022-10-15T08:31:54;14;12;
59546;PMS5003;45368;55.002;-1.592;2022-10-15T08:34:22;13;12;
59546;PMS5003;45368;55.002;-1.592;2022-10-15T08:36:49;13;12;
59546;PMS5003;45368;55.002;-1.592;2022-10-15T08:39:16;11;11;
59546;PMS5003;45368;55.002;-1.592;2022-10-15T08:41:44;10;10;
59546;PMS5003;45368;55.002;-1.592;2022-10-15T08:44:17;10;10;
59546;PMS5003;45368;55.002;-1.592;2022-10-15T08:46:50;11;11;
59546;PMS5003;45368;55.002;-1.592;2022-10-15T08:49:25;13;11;
59546;PMS5003;45368;55.002;-1.592;2022-10-15T08:52:01;12;11;
59546;PMS5003;45368;55.002;-1.592;2022-10-15T08:54:37;12;11;
59546;PMS5003;45368;55.002;-1.592;2022-10-15T08:57:08;9;9;
59546;PMS5003;45368;55.002;-1.592;2022-10-15T08:59:44;9;9;
59546;PMS5003;45368;55.002;-1.592;2022-10-15T09:02:20;10;10;
59546;PMS5003;45368;55.002;-1.592;2022-10-15T09:04:53;10;8;
59546;PMS5003;45368;55.002;-1.592;2022-10-15T09:07:30;10;9;
59546;PMS5003;45368;55.002;-1.592;2022-10-15T09:10:11;11;10;
59546;PMS5003;45368;55.002;-1.592;2022-10-15T09:12:46;10;8;
59546;PMS5003;45368;55.002;-1.592;2022-10-15T09:15:21;7;6;
59546;PMS5003;45368;55.002;-1.592;2022-10-15T09:17:50;5;5;
59546;PMS5003;45368;55.002;-1.592;2022-10-15T09:20:20;8;8;
59546;PMS5003;45368;55.002;-1.592;2022-10-15T09:22:51;9;6;
59546;PMS5003;45368;55.002;-1.592;2022-10-15T09:25:20;6;6;
59546;PMS5003;45368;55.002;-1.592;2022-10-15T09:27:49;5;5;
59546;PMS5003;45368;55.002;-1.592;2022-10-15T09:30:24;5;4;
59546;PMS5003;45368;55.002;-1.592;2022-10-15T09:32:58;5;4;
59546;PMS5003;45368;55.002;-1.592;2022-10-15T09:35:33;3;3;
59546;PMS5003;45368;55.002;-1.592;2022-10-15T09:38:08;2;1;
59546;PMS5003;45368;55.002;-1.592;2022-10-15T09:40:53;1;1;
59546;PMS5003;45368;55.002;-1.592;2022-10-15T09:43:30;0;0;
59546;PMS5003;45368;55.002;-1.592;2022-10-15T09:46:01;0;0;
59546;PMS5003;45368;55.002;-1.592;2022-10-15T09:48:30;1;0;
59546;PMS5003;45368;55.002;-1.592;2022-10-15T09:51:03;0;0;
59546;PMS5003;45368;55.002;-1.592;2022-10-15T09:53:39;0;0;
59546;PMS5003;45368;55.002;-1.592;2022-10-15T09:56:16;0;0;
59546;PMS5003;45368;55.002;-1.592;2022-10-15T09:58:49;0;0;
59546;PMS5003;45368;55.002;-1.592;2022-10-15T10:01:19;0;0;
59546;PMS5003;45368;55.002;-1.592;2022-10-15T10:03:50;0;0;
59546;PMS5003;45368;55.002;-1.592;2022-10-15T10:06:20;0;0;
59546;PMS5003;45368;55.002;-1.592;2022-10-15T10:08:49;1;0;
59546;PMS5003;45368;55.002;-1.592;2022-10-15T10:11:20;0;0;
59546;PMS5003;45368;55.002;-1.592;2022-10-15T10:13:50;0;0;
59546;PMS5003;45368;55.002;-1.592;2022-10-15T10:16:20;0;0;
59546;PMS5003;45368;55.002;-1.592;2022-10-15T10:19:04;0;0;
59546;PMS5003;45368;55.002;-1.592;2022-10-15T10:21:38;0;0;
59546;PMS5003;45368;55.002;-1.592;2022-10-15T10:24:39;0;0;
59546;PMS5003;45368;55.002;-1.592;2022-10-15T10:27:14;0;0;
59546;PMS5003;45368;55.002;-1.592;2022-10-15T10:29:47;0;0;
59546;PMS5003;45368;55.002;-1.592;2022-10-15T10:32:19;0;0;
59546;PMS5003;45368;55.002;-1.592;2022-10-15T10:34:49;0;0;
59546;PMS5003;45368;55.002;-1.592;2022-10-15T10:37:16;0;0;
59546;PMS5003;45368;55.002;-1.592;2022-10-15T10:39:44;0;0;
59546;PMS5003;45368;55.002;-1.592;2022-10-15T10:42:25;0;0;
59546;PMS5003;45368;55.002;-1.592;2022-10-15T10:45:06;0;0;
59546;PMS5003;45368;55.002;-1.592;2022-10-15T10:47:41;0;0;
59546;PMS5003;45368;55.002;-1.592;2022-10-15T10:50:25;0;0;
59546;PMS5003;45368;55.002;-1.592;2022-10-15T10:52:54;0;0;
59546;PMS5003;45368;55.002;-1.592;2022-10-15T10:55:22;0;0;
59546;PMS5003;45368;55.002;-1.592;2022-10-15T10:57:57;0;0;
59546;PMS5003;45368;55.002;-1.592;2022-10-15T11:00:28;0;0;
59546;PMS5003;45368;55.002;-1.592;2022-10-15T11:03:01;0;0;
59546;PMS5003;45368;55.002;-1.592;2022-10-15T11:05:31;0;0;
59546;PMS5003;45368;55.002;-1.592;2022-10-15T11:08:11;0;0;
59546;PMS5003;45368;55.002;-1.592;2022-10-15T11:10:48;0;0;
59546;PMS5003;45368;55.002;-1.592;2022-10-15T11:13:26;0;0;
59546;PMS5003;45368;55.002;-1.592;2022-10-15T11:16:03;0;0;
59546;PMS5003;45368;55.002;-1.592;2022-10-15T11:18:49;0;0;
59546;PMS5003;45368;55.002;-1.592;2022-10-15T11:21:27;0;0;
59546;PMS5003;45368;55.002;-1.592;2022-10-15T11:24:08;0;0;
59546;PMS5003;45368;55.002;-1.592;2022-10-15T11:26:45;0;0;
59546;PMS5003;45368;55.002;-1.592;2022-10-15T11:29:23;0;0;
59546;PMS5003;45368;55.002;-1.592;2022-10-15T11:32:01;0;0;
59546;PMS5003;45368;55.002;-1.592;2022-10-15T11:34:38;1;0;
59546;PMS5003;45368;55.002;-1.592;2022-10-15T11:37:20;0;0;
59546;PMS5003;45368;55.002;-1.592;2022-10-15T11:40:08;0;0;
59546;PMS5003;45368;55.002;-1.592;2022-10-15T11:42:48;0;0;
59546;PMS5003;45368;55.002;-1.592;2022-10-15T11:45:27;0;0;
59546;PMS5003;45368;55.002;-1.592;2022-10-15T11:48:08;0;0;
59546;PMS5003;45368;55.002;-1.592;2022-10-15T11:50:43;0;0;
59546;PMS5003;45368;55.002;-1.592;2022-10-15T11:53:24;0;0;
59546;PMS5003;45368;55.002;-1.592;2022-10-15T11:56:01;0;0;
59546;PMS5003;45368;55.002;-1.592;2022-10-15T11:58:35;0;0;
59546;PMS5003;45368;55.002;-1.592;2022-10-15T12:01:07;0;0;
59546;PMS5003;45368;55.002;-1.592;2022-10-15T12:03:46;1;1;
59546;PMS5003;45368;55.002;-1.592;2022-10-15T12:06:17;0;0;
59546;PMS5003;45368;55.002;-1.592;2022-10-15T12:08:50;1;0;
59546;PMS5003;45368;55.002;-1.592;2022-10-15T12:11:22;0;0;
59546;PMS5003;45368;55.002;-1.592;2022-10-15T12:13:59;0;0;
59546;PMS5003;45368;55.002;-1.592;2022-10-15T12:16:33;0;0;
59546;PMS5003;45368;55.002;-1.592;2022-10-15T12:19:09;0;0;
59546;PMS5003;45368;55.002;-1.592;2022-10-15T12:21:43;0;0;
59546;PMS5003;45368;55.002;-1.592;2022-10-15T12:24:48;0;0;
59546;PMS5003;45368;55.002;-1.592;2022-10-15T12:27:20;0;0;
59546;PMS5003;45368;55.002;-1.592;2022-10-15T12:29:49;1;0;
59546;PMS5003;45368;55.002;-1.592;2022-10-15T12:32:20;0;0;
59546;PMS5003;45368;55.002;-1.592;2022-10-15T12:34:53;0;0;
59546;PMS5003;45368;55.002;-1.592;2022-10-15T12:37:23;0;0;
59546;PMS5003;45368;55.002;-1.592;2022-10-15T12:39:54;0;0;
59546;PMS5003;45368;55.002;-1.592;2022-10-15T12:42:25;0;0;
59546;PMS5003;45368;55.002;-1.592;2022-10-15T12:44:56;0;0;
59546;PMS5003;45368;55.002;-1.592;2022-10-15T12:48:12;3;0;
59546;PMS5003;45368;55.002;-1.592;2022-10-15T12:50:45;0;0;
59546;PMS5003;45368;55.002;-1.592;2022-10-15T12:53:29;1;1;
59546;PMS5003;45368;55.002;-1.592;2022-10-15T12:56:10;1;1;
59546;PMS5003;45368;55.002;-1.592;2022-10-15T12:58:39;0;0;
59546;PMS5003;45368;55.002;-1.592;2022-10-15T13:01:26;1;0;
59546;PMS5003;45368;55.002;-1.592;2022-10-15T13:03:54;1;0;
59546;PMS5003;45368;55.002;-1.592;2022-10-15T13:06:25;0;0;
59546;PMS5003;45368;55.002;-1.592;2022-10-15T13:09:01;0;0;
59546;PMS5003;45368;55.002;-1.592;2022-10-15T13:11:39;0;0;
59546;PMS5003;45368;55.002;-1.592;2022-10-15T13:14:15;0;0;
59546;PMS5003;45368;55.002;-1.592;2022-10-15T13:16:46;1;0;
59546;PMS5003;45368;55.002;-1.592;2022-10-15T13:19:16;1;0;
59546;PMS5003;45368;55.002;-1.592;2022-10-15T13:21:46;0;0;
59546;PMS5003;45368;55.002;-1.592;2022-10-15T13:24:17;4;1;
59546;PMS5003;45368;55.002;-1.592;2022-10-15T13:26:45;1;1;
59546;PMS5003;45368;55.002;-1.592;2022-10-15T13:29:14;0;0;
59546;PMS5003;45368;55.002;-1.592;2022-10-15T13:31:42;0;0;
59546;PMS5003;45368;55.002;-1.592;2022-10-15T13:34:12;0;0;
59546;PMS5003;45368;55.002;-1.592;2022-10-15T13:36:48;2;2;
59546;PMS5003;45368;55.002;-1.592;2022-10-15T13:39:27;2;1;
59546;PMS5003;45368;55.002;-1.592;2022-10-15T13:42:05;2;1;
59546;PMS5003;45368;55.002;-1.592;2022-10-15T13:44:34;2;2;
59546;PMS5003;45368;55.002;-1.592;2022-10-15T13:47:02;0;0;
59546;PMS5003;45368;55.002;-1.592;2022-10-15T13:49:42;2;1;
59546;PMS5003;45368;55.002;-1.592;2022-10-15T13:52:09;0;0;
59546;PMS5003;45368;55.002;-1.592;2022-10-15T13:54:36;1;0;
59546;PMS5003;45368;55.002;-1.592;2022-10-15T13:57:05;0;0;
59546;PMS5003;45368;55.002;-1.592;2022-10-15T13:59:37;0;0;
59546;PMS5003;45368;55.002;-1.592;2022-10-15T14:02:09;1;0;
59546;PMS5003;45368;55.002;-1.592;2022-10-15T14:04:37;2;1;
59546;PMS5003;45368;55.002;-1.592;2022-10-15T14:07:17;0;0;
59546;PMS5003;45368;55.002;-1.592;2022-10-15T14:09:48;0;0;
59546;PMS5003;45368;55.002;-1.592;2022-10-15T14:12:17;1;0;
59546;PMS5003;45368;55.002;-1.592;2022-10-15T14:14:45;2;1;
59546;PMS5003;45368;55.002;-1.592;2022-10-15T14:17:20;1;1;
59546;PMS5003;45368;55.002;-1.592;2022-10-15T14:19:50;0;0;
59546;PMS5003;45368;55.002;-1.592;2022-10-15T14:22:21;0;0;
59546;PMS5003;45368;55.002;-1.592;2022-10-15T14:24:50;2;0;
59546;PMS5003;45368;55.002;-1.592;2022-10-15T14:27:20;2;0;
59546;PMS5003;45368;55.002;-1.592;2022-10-15T14:29:49;0;0;
59546;PMS5003;45368;55.002;-1.592;2022-10-15T14:32:19;0;0;
59546;PMS5003;45368;55.002;-1.592;2022-10-15T14:34:49;0;0;
59546;PMS5003;45368;55.002;-1.592;2022-10-15T14:37:57;0;0;
59546;PMS5003;45368;55.002;-1.592;2022-10-15T14:40:26;1;0;
59546;PMS5003;45368;55.002;-1.592;2022-10-15T14:43:02;0;0;
59546;PMS5003;45368;55.002;-1.592;2022-10-15T14:45:34;1;0;
59546;PMS5003;45368;55.002;-1.592;2022-10-15T14:48:08;0;0;
59546;PMS5003;45368;55.002;-1.592;2022-10-15T14:50:41;0;0;
59546;PMS5003;45368;55.002;-1.592;2022-10-15T14:53:09;0;0;
59546;PMS5003;45368;55.002;-1.592;2022-10-15T14:55:46;0;0;
59546;PMS5003;45368;55.002;-1.592;2022-10-15T14:58:19;2;1;
59546;PMS5003;45368;55.002;-1.592;2022-10-15T15:00:48;2;0;
59546;PMS5003;45368;55.002;-1.592;2022-10-15T15:03:26;2;2;
59546;PMS5003;45368;55.002;-1.592;2022-10-15T15:05:55;0;0;
59546;PMS5003;45368;55.002;-1.592;2022-10-15T15:08:24;2;1;
59546;PMS5003;45368;55.002;-1.592;2022-10-15T15:10:51;2;0;
59546;PMS5003;45368;55.002;-1.592;2022-10-15T15:13:22;4;2;
59546;PMS5003;45368;55.002;-1.592;2022-10-15T15:15:51;2;1;
59546;PMS5003;45368;55.002;-1.592;2022-10-15T15:18:19;2;1;
59546;PMS5003;45368;55.002;-1.592;2022-10-15T15:20:47;0;0;
59546;PMS5003;45368;55.002;-1.592;2022-10-15T15:23:16;0;0;
59546;PMS5003;45368;55.002;-1.592;2022-10-15T15:25:45;0;0;
59546;PMS5003;45368;55.002;-1.592;2022-10-15T15:28:13;2;0;
59546;PMS5003;45368;55.002;-1.592;2022-10-15T15:30:42;1;1;
59546;PMS5003;45368;55.002;-1.592;2022-10-15T15:33:10;1;1;
59546;PMS5003;45368;55.002;-1.592;2022-10-15T15:35:40;2;0;
59546;PMS5003;45368;55.002;-1.592;2022-10-15T15:38:11;0;0;
59546;PMS5003;45368;55.002;-1.592;2022-10-15T15:40:37;1;0;
59546;PMS5003;45368;55.002;-1.592;2022-10-15T15:43:04;1;0;
59546;PMS5003;45368;55.002;-1.592;2022-10-15T15:45:31;0;0;
59546;PMS5003;45368;55.002;-1.592;2022-10-15T15:47:59;2;2;
59546;PMS5003;45368;55.002;-1.592;2022-10-15T15:50:26;2;2;
59546;PMS5003;45368;55.002;-1.592;2022-10-15T15:52:53;1;1;
59546;PMS5003;45368;55.002;-1.592;2022-10-15T15:55:20;3;3;
59546;PMS5003;45368;55.002;-1.592;2022-10-15T15:57:48;0;0;
59546;PMS5003;45368;55.002;-1.592;2022-10-15T16:00:15;1;1;
59546;PMS5003;45368;55.002;-1.592;2022-10-15T16:02:42;3;3;
59546;PMS5003;45368;55.002;-1.592;2022-10-15T16:05:11;2;2;
59546;PMS5003;45368;55.002;-1.592;2022-10-15T16:07:40;1;1;
59546;PMS5003;45368;55.002;-1.592;2022-10-15T16:10:08;4;3;
59546;PMS5003;45368;55.002;-1.592;2022-10-15T16:12:36;7;6;
59546;PMS5003;45368;55.002;-1.592;2022-10-15T16:15:04;5;2;
59546;PMS5003;45368;55.002;-1.592;2022-10-15T16:17:32;5;3;
59546;PMS5003;45368;55.002;-1.592;2022-10-15T16:20:00;6;4;
59546;PMS5003;45368;55.002;-1.592;2022-10-15T16:22:27;4;3;
59546;PMS5003;45368;55.002;-1.592;2022-10-15T16:24:54;7;5;
59546;PMS5003;45368;55.002;-1.592;2022-10-15T16:27:21;2;2;
59546;PMS5003;45368;55.002;-1.592;2022-10-15T16:29:48;4;3;
59546;PMS5003;45368;55.002;-1.592;2022-10-15T16:32:15;1;1;
59546;PMS5003;45368;55.002;-1.592;2022-10-15T16:34:42;7;4;
59546;PMS5003;45368;55.002;-1.592;2022-10-15T16:37:09;5;4;
59546;PMS5003;45368;55.002;-1.592;2022-10-15T16:39:36;5;5;
59546;PMS5003;45368;55.002;-1.592;2022-10-15T16:42:03;7;3;
59546;PMS5003;45368;55.002;-1.592;2022-10-15T16:44:30;7;6;
59546;PMS5003;45368;55.002;-1.592;2022-10-15T16:46:57;3;2;